createdAt,value
2019-05-02T00:01:58.299Z,28.70
2019-05-02T00:04:28.202Z,28.70
2019-05-02T00:07:06.445Z,28.70
2019-05-02T00:09:47.408Z,28.70
2019-05-02T00:12:15.005Z,28.80
2019-05-02T00:14:45.606Z,28.80
2019-05-02T00:17:20.155Z,28.80
2019-05-02T00:19:51.237Z,28.80
2019-05-02T00:22:21.478Z,28.80
2019-05-02T00:24:51.404Z,28.80
2019-05-02T00:27:21.602Z,28.80
2019-05-02T00:29:53.741Z,28.80
2019-05-02T00:32:23.684Z,28.80
2019-05-02T00:34:53.607Z,28.80
2019-05-02T00:37:24.474Z,28.80
2019-05-02T00:39:54.851Z,28.80
2019-05-02T00:42:24.686Z,28.80
2019-05-02T00:44:54.519Z,28.80
2019-05-02T00:47:34.646Z,28.80
2019-05-02T00:50:06.287Z,28.80
2019-05-02T00:52:37.831Z,28.80
2019-05-02T00:55:08.062Z,28.80
2019-05-02T00:57:37.826Z,28.80
2019-05-02T01:00:13.529Z,28.80
2019-05-02T01:02:47.086Z,28.80
2019-05-02T01:05:19.003Z,28.80
2019-05-02T01:07:48.814Z,28.90
2019-05-02T01:10:21.328Z,28.80
2019-05-02T01:12:50.407Z,28.80
2019-05-02T01:15:20.230Z,28.90
2019-05-02T01:17:50.109Z,28.90
2019-05-02T01:20:22.336Z,28.90
2019-05-02T01:22:52.349Z,28.80
2019-05-02T01:25:23.090Z,28.90
2019-05-02T01:28:18.841Z,28.90
2019-05-02T01:31:07.298Z,28.90
2019-05-02T01:33:50.158Z,28.90
2019-05-02T01:36:23.663Z,28.90
2019-05-02T01:38:53.494Z,28.90
2019-05-02T01:41:24.092Z,28.90
2019-05-02T01:43:59.533Z,28.90
2019-05-02T01:46:26.295Z,28.90
2019-05-02T01:48:57.177Z,29.00
2019-05-02T01:51:27.218Z,29.00
2019-05-02T01:53:57.014Z,28.90
2019-05-02T01:56:28.589Z,28.90
2019-05-02T01:59:00.235Z,28.90
2019-05-02T02:01:30.103Z,29.00
2019-05-02T02:04:00.031Z,29.00
2019-05-02T02:06:29.890Z,29.00
2019-05-02T02:09:03.377Z,28.90
2019-05-02T02:11:33.775Z,28.90
2019-05-02T02:14:07.382Z,29.00
2019-05-02T02:16:35.311Z,29.00
2019-05-02T02:19:23.769Z,29.00
2019-05-02T02:22:04.522Z,29.00
2019-05-02T02:24:38.434Z,29.00
2019-05-02T02:27:09.941Z,29.00
2019-05-02T02:29:44.083Z,29.00
2019-05-02T02:32:12.428Z,29.00
2019-05-02T02:34:42.279Z,29.00
2019-05-02T02:37:14.856Z,29.10
2019-05-02T02:39:48.544Z,29.10
2019-05-02T02:42:15.126Z,29.00
2019-05-02T02:44:53.907Z,29.00
2019-05-02T02:47:23.680Z,29.10
2019-05-02T02:49:56.110Z,29.00
2019-05-02T02:52:26.763Z,29.00
2019-05-02T02:54:56.603Z,29.00
2019-05-02T02:57:28.498Z,29.10
2019-05-02T03:00:06.685Z,29.10
2019-05-02T03:02:29.423Z,29.10
2019-05-02T03:04:59.330Z,29.10
2019-05-02T03:07:29.263Z,29.10
2019-05-02T03:09:59.533Z,29.10
2019-05-02T03:12:55.617Z,29.10
2019-05-02T03:15:29.772Z,29.10
2019-05-02T03:18:00.309Z,29.10
2019-05-02T03:20:40.083Z,29.10
2019-05-02T03:23:02.952Z,29.10
2019-05-02T03:25:49.738Z,29.10
2019-05-02T03:28:05.361Z,29.10
2019-05-02T03:30:38.079Z,29.10
2019-05-02T03:33:11.921Z,29.20
2019-05-02T03:35:48.196Z,29.10
2019-05-02T03:38:12.578Z,29.10
2019-05-02T03:40:43.477Z,29.10
2019-05-02T03:43:19.211Z,29.10
2019-05-02T03:45:45.254Z,29.50
2019-05-02T03:48:18.117Z,29.10
2019-05-02T03:50:46.811Z,29.10
2019-05-02T03:53:17.533Z,29.10
2019-05-02T03:55:48.717Z,29.10
2019-05-02T03:58:18.945Z,29.10
2019-05-02T04:01:00.332Z,29.10
2019-05-02T04:03:21.799Z,29.10
2019-05-02T04:05:51.582Z,29.20
2019-05-02T04:08:22.745Z,29.20
2019-05-02T04:11:23.826Z,29.20
2019-05-02T04:13:55.454Z,29.20
2019-05-02T04:16:26.563Z,29.20
2019-05-02T04:18:58.401Z,29.20
2019-05-02T04:21:28.738Z,29.10
2019-05-02T04:24:07.498Z,29.20
2019-05-02T04:26:31.925Z,29.10
2019-05-02T04:29:03.137Z,29.20
2019-05-02T04:31:33.794Z,29.20
2019-05-02T04:34:13.622Z,29.20
2019-05-02T04:36:37.208Z,29.20
2019-05-02T04:39:15.125Z,29.20
2019-05-02T04:41:42.315Z,29.20
2019-05-02T04:44:10.491Z,29.20
2019-05-02T04:46:40.742Z,29.20
2019-05-02T04:49:10.543Z,29.20
2019-05-02T04:51:40.890Z,29.20
2019-05-02T04:54:21.836Z,29.10
2019-05-02T04:56:49.677Z,29.10
2019-05-02T04:59:17.589Z,29.20
2019-05-02T05:01:52.781Z,29.20
2019-05-02T05:04:17.820Z,29.10
2019-05-02T05:06:56.189Z,29.10
2019-05-02T05:09:19.830Z,29.20
2019-05-02T05:11:53.892Z,29.20
2019-05-02T05:14:21.130Z,29.10
2019-05-02T05:16:55.448Z,29.10
2019-05-02T05:19:22.936Z,29.20
2019-05-02T05:21:58.763Z,29.10
2019-05-02T05:24:38.543Z,29.10
2019-05-02T05:27:05.710Z,29.10
2019-05-02T05:29:37.484Z,29.10
2019-05-02T05:32:10.104Z,29.10
2019-05-02T05:34:39.719Z,29.10
2019-05-02T05:37:13.404Z,29.10
2019-05-02T05:39:42.921Z,29.10
2019-05-02T05:42:12.644Z,29.10
2019-05-02T05:44:42.503Z,29.10
2019-05-02T05:47:16.921Z,29.10
2019-05-02T05:49:44.163Z,29.10
2019-05-02T05:52:13.978Z,29.10
2019-05-02T05:54:43.824Z,29.10
2019-05-02T05:57:19.185Z,29.10
2019-05-02T05:59:45.110Z,29.10
2019-05-02T06:02:14.917Z,29.10
2019-05-02T06:04:47.363Z,29.10
2019-05-02T06:07:20.138Z,29.10
2019-05-02T06:09:49.774Z,29.10
2019-05-02T06:12:19.663Z,29.10
2019-05-02T06:14:49.547Z,29.10
2019-05-02T06:17:23.001Z,29.10
2019-05-02T06:19:53.592Z,29.00
2019-05-02T06:22:25.598Z,29.40
2019-05-02T06:24:55.871Z,30.60
2019-05-02T06:27:30.155Z,31.00
2019-05-02T06:29:58.370Z,32.60
2019-05-02T06:32:28.402Z,32.80
2019-05-02T06:34:59.622Z,33.20
2019-05-02T06:37:29.515Z,33.50
2019-05-02T06:40:03.226Z,33.60
2019-05-02T06:42:32.840Z,33.80
2019-05-02T06:45:02.513Z,33.90
2019-05-02T06:47:35.962Z,33.80
2019-05-02T06:50:04.763Z,33.70
2019-05-02T06:52:35.171Z,34.00
2019-05-02T06:55:06.795Z,34.20
2019-05-02T06:57:36.702Z,34.60
2019-05-02T07:00:07.914Z,35.00
2019-05-02T07:02:38.071Z,34.90
2019-05-02T07:05:08.384Z,35.00
2019-05-02T07:07:38.226Z,34.80
2019-05-02T07:10:09.583Z,34.60
2019-05-02T07:12:39.414Z,34.30
2019-05-02T07:15:26.197Z,34.10
2019-05-02T07:17:58.621Z,33.80
2019-05-02T07:20:28.466Z,33.50
2019-05-02T07:22:58.322Z,33.20
2019-05-02T07:25:28.222Z,33.10
2019-05-02T07:27:58.475Z,33.00
2019-05-02T07:30:30.097Z,32.80
2019-05-02T07:33:02.414Z,32.60
2019-05-02T07:35:33.426Z,32.50
2019-05-02T07:38:03.230Z,32.20
2019-05-02T07:40:33.109Z,32.10
2019-05-02T07:43:02.999Z,32.00
2019-05-02T07:45:32.809Z,31.80
2019-05-02T07:48:02.716Z,32.30
2019-05-02T07:50:32.626Z,31.60
2019-05-02T07:53:09.148Z,31.50
2019-05-02T07:55:40.757Z,31.40
2019-05-02T07:58:08.301Z,31.30
2019-05-02T08:00:38.538Z,31.10
2019-05-02T08:03:08.667Z,31.20
2019-05-02T08:05:38.922Z,31.10
2019-05-02T08:08:09.028Z,31.10
2019-05-02T08:10:38.825Z,31.20
2019-05-02T08:13:12.118Z,31.20
2019-05-02T08:15:40.213Z,31.10
2019-05-02T08:18:10.128Z,31.10
2019-05-02T08:20:40.001Z,31.10
2019-05-02T08:23:09.803Z,31.00
2019-05-02T08:25:41.584Z,31.10
2019-05-02T08:28:24.150Z,30.90
2019-05-02T08:30:57.697Z,30.90
2019-05-02T08:33:29.285Z,30.90
2019-05-02T08:36:01.119Z,30.70
2019-05-02T08:38:31.147Z,30.70
2019-05-02T08:41:02.856Z,30.60
2019-05-02T08:43:33.469Z,30.40
2019-05-02T08:46:03.535Z,30.20
2019-05-02T08:48:36.546Z,30.00
2019-05-02T08:51:04.989Z,30.00
2019-05-02T08:53:34.885Z,30.00
2019-05-02T08:56:05.072Z,30.00
2019-05-02T08:58:35.462Z,30.00
2019-05-02T09:01:09.263Z,30.00
2019-05-02T09:03:54.638Z,30.00
2019-05-02T09:06:09.656Z,30.00
2019-05-02T09:08:39.489Z,29.90
2019-05-02T09:11:14.167Z,29.70
2019-05-02T09:13:42.208Z,29.70
2019-05-02T09:16:12.258Z,29.80
2019-05-02T09:18:50.528Z,29.80
2019-05-02T09:21:13.628Z,29.70
2019-05-02T09:23:44.025Z,29.80
2019-05-02T09:26:14.145Z,29.80
2019-05-02T09:28:44.879Z,30.00
2019-05-02T09:31:17.050Z,29.70
2019-05-02T09:33:47.055Z,29.90
2019-05-02T09:36:17.362Z,30.00
2019-05-02T09:38:53.156Z,30.00
2019-05-02T09:41:22.094Z,29.90
2019-05-02T09:43:52.426Z,29.90
2019-05-02T09:46:22.447Z,29.90
2019-05-02T09:48:52.350Z,29.90
2019-05-02T09:51:22.231Z,30.30
2019-05-02T09:53:52.440Z,29.90
2019-05-02T09:56:22.419Z,29.90
2019-05-02T09:58:56.775Z,29.70
2019-05-02T10:01:31.736Z,29.50
2019-05-02T10:04:02.412Z,29.00
2019-05-02T10:06:34.113Z,28.60
2019-05-02T10:09:06.035Z,28.40
2019-05-02T10:11:36.134Z,28.50
2019-05-02T10:14:06.439Z,28.60
2019-05-02T10:16:37.261Z,28.70
2019-05-02T10:19:10.788Z,28.70
2019-05-02T10:21:38.934Z,28.80
2019-05-02T10:24:09.187Z,28.80
2019-05-02T10:26:39.078Z,28.70
2019-05-02T10:29:10.081Z,28.60
2019-05-02T10:31:42.147Z,28.60
2019-05-02T10:34:16.197Z,28.50
2019-05-02T10:36:45.453Z,28.50
2019-05-02T10:39:16.895Z,28.80
2019-05-02T10:41:46.771Z,28.10
2019-05-02T10:44:16.876Z,27.30
2019-05-02T10:46:54.986Z,27.10
2019-05-02T10:49:44.387Z,27.00
2019-05-02T10:52:14.539Z,27.30
2019-05-02T10:54:44.452Z,27.80
2019-05-02T10:57:16.092Z,28.40
2019-05-02T10:59:46.626Z,28.20
2019-05-02T11:02:38.719Z,28.60
2019-05-02T11:05:16.866Z,29.00
2019-05-02T11:07:49.303Z,29.50
2019-05-02T11:10:21.773Z,29.80
2019-05-02T11:13:02.506Z,29.80
2019-05-02T11:16:12.369Z,30.10
2019-05-02T11:18:58.650Z,29.80
2019-05-02T11:21:28.617Z,29.80
2019-05-02T11:23:58.534Z,29.90
2019-05-02T11:26:28.702Z,29.90
2019-05-02T11:28:58.933Z,29.90
2019-05-02T11:31:29.526Z,30.00
2019-05-02T11:34:01.631Z,30.00
2019-05-02T11:36:32.775Z,30.00
2019-05-02T11:39:17.298Z,30.00
2019-05-02T11:41:37.418Z,29.90
2019-05-02T11:44:07.747Z,30.00
2019-05-02T11:46:42.888Z,30.00
2019-05-02T11:49:12.228Z,30.00
2019-05-02T11:51:42.342Z,29.60
2019-05-02T11:54:13.013Z,29.40
2019-05-02T11:56:48.961Z,29.50
2019-05-02T11:59:15.116Z,30.10
2019-05-02T12:01:59.412Z,29.90
2019-05-02T12:04:23.327Z,29.90
2019-05-02T12:07:01.054Z,29.90
2019-05-02T12:09:25.114Z,30.00
2019-05-02T12:11:56.689Z,29.90
2019-05-02T12:14:31.722Z,29.60
2019-05-02T12:16:58.796Z,29.80
2019-05-02T12:19:29.342Z,29.90
2019-05-02T12:21:59.337Z,30.00
2019-05-02T12:24:29.209Z,30.00
2019-05-02T12:27:02.517Z,30.00
2019-05-02T12:29:34.080Z,30.00
2019-05-02T12:32:03.967Z,29.90
2019-05-02T12:34:33.942Z,29.90
2019-05-02T12:37:03.882Z,30.00
2019-05-02T12:39:35.751Z,30.00
2019-05-02T12:42:05.961Z,30.00
2019-05-02T12:44:37.015Z,30.00
2019-05-02T12:47:07.035Z,30.00
2019-05-02T12:49:36.889Z,30.00
2019-05-02T12:52:06.851Z,30.00
2019-05-02T12:54:36.659Z,30.00
2019-05-02T12:57:07.683Z,30.00
2019-05-02T12:59:38.002Z,30.00
2019-05-02T13:02:12.501Z,30.00
2019-05-02T13:04:42.310Z,30.00
2019-05-02T13:07:12.786Z,30.30
2019-05-02T13:09:42.758Z,30.30
2019-05-02T13:12:19.828Z,30.30
2019-05-02T13:14:49.735Z,30.20
2019-05-02T13:17:19.527Z,30.10
2019-05-02T13:19:56.936Z,30.30
2019-05-02T13:22:37.183Z,30.10
2019-05-02T13:25:12.961Z,30.20
2019-05-02T13:27:47.785Z,30.20
2019-05-02T13:30:25.766Z,30.10
2019-05-02T13:33:02.401Z,29.90
2019-05-02T13:35:42.937Z,29.80
2019-05-02T13:38:16.034Z,29.70
2019-05-02T13:40:46.270Z,29.70
2019-05-02T13:43:17.486Z,29.80
2019-05-02T13:45:57.703Z,29.80
2019-05-02T13:48:27.710Z,29.90
2019-05-02T13:50:57.803Z,29.90
2019-05-02T13:53:29.431Z,29.80
2019-05-02T13:56:18.438Z,29.70
2019-05-02T13:58:48.270Z,29.70
2019-05-02T14:01:18.694Z,30.00
2019-05-02T14:03:48.560Z,29.60
2019-05-02T14:06:23.163Z,29.70
2019-05-02T14:08:55.433Z,29.70
2019-05-02T14:11:46.656Z,29.60
2019-05-02T14:14:16.539Z,29.50
2019-05-02T14:16:46.612Z,29.50
2019-05-02T14:19:16.766Z,29.50
2019-05-02T14:21:46.568Z,29.50
2019-05-02T14:24:18.394Z,29.60
2019-05-02T14:26:48.252Z,29.50
2019-05-02T14:29:21.733Z,29.50
2019-05-02T14:31:52.067Z,29.60
2019-05-02T14:34:57.362Z,29.60
2019-05-02T14:37:27.217Z,29.50
2019-05-02T14:40:06.703Z,29.40
2019-05-02T14:42:38.494Z,29.30
2019-05-02T14:45:20.384Z,29.40
2019-05-02T14:47:42.351Z,29.40
2019-05-02T14:50:23.541Z,29.30
2019-05-02T14:52:45.805Z,29.30
2019-05-02T14:55:22.254Z,29.30
2019-05-02T14:57:48.647Z,29.20
2019-05-02T15:00:19.103Z,29.10
2019-05-02T15:02:49.517Z,29.20
2019-05-02T15:05:27.923Z,29.20
2019-05-02T15:07:51.884Z,29.20
2019-05-02T15:10:22.841Z,29.10
2019-05-02T15:12:59.652Z,29.20
2019-05-02T15:15:27.954Z,29.10
2019-05-02T15:17:55.910Z,29.10
2019-05-02T15:20:36.573Z,29.00
2019-05-02T15:22:57.911Z,29.00
2019-05-02T15:25:31.853Z,29.10
2019-05-02T15:28:02.468Z,29.10
2019-05-02T15:30:36.978Z,29.10
2019-05-02T15:33:12.536Z,29.10
2019-05-02T15:35:52.706Z,29.60
2019-05-02T15:38:27.407Z,29.10
2019-05-02T15:40:59.361Z,29.10
2019-05-02T15:43:28.111Z,29.20
2019-05-02T15:45:58.218Z,29.10
2019-05-02T15:48:28.027Z,29.20
2019-05-02T15:51:00.118Z,29.20
2019-05-02T15:53:39.057Z,29.20
2019-05-02T15:56:18.649Z,29.20
2019-05-02T15:58:39.039Z,29.20
2019-05-02T16:01:19.431Z,29.30
2019-05-02T16:03:52.256Z,29.30
2019-05-02T16:06:30.293Z,29.30
2019-05-02T16:08:53.811Z,29.30
2019-05-02T16:11:23.880Z,29.40
2019-05-02T16:13:55.938Z,29.30
2019-05-02T16:16:25.763Z,29.30
2019-05-02T16:18:55.680Z,29.40
2019-05-02T16:21:46.434Z,29.40
2019-05-02T16:24:19.811Z,29.40
2019-05-02T16:26:53.008Z,29.40
2019-05-02T16:29:28.263Z,29.50
2019-05-02T16:32:14.915Z,29.40
2019-05-02T16:34:54.796Z,29.40
2019-05-02T16:37:24.883Z,29.40
2019-05-02T16:39:54.725Z,29.50
2019-05-02T16:42:24.929Z,29.50
2019-05-02T16:44:56.170Z,29.50
2019-05-02T16:47:26.055Z,29.50
2019-05-02T16:49:56.540Z,29.50
2019-05-02T16:52:26.583Z,29.50
2019-05-02T16:54:56.462Z,29.40
2019-05-02T16:57:26.341Z,29.50
2019-05-02T17:00:01.126Z,29.50
2019-05-02T17:02:32.554Z,29.50
2019-05-02T17:05:08.307Z,29.50
2019-05-02T17:07:43.460Z,29.50
2019-05-02T17:10:22.446Z,29.50
2019-05-02T17:12:56.974Z,29.50
2019-05-02T17:15:31.237Z,29.50
2019-05-02T17:18:05.020Z,29.50
2019-05-02T17:20:32.836Z,29.50
2019-05-02T17:23:07.222Z,29.50
2019-05-02T17:25:34.697Z,29.40
2019-05-02T17:28:09.754Z,29.50
2019-05-02T17:30:39.040Z,29.50
2019-05-02T17:33:14.279Z,29.50
2019-05-02T17:35:48.788Z,29.50
2019-05-02T17:38:12.487Z,29.40
2019-05-02T17:40:42.510Z,29.50
2019-05-02T17:43:13.941Z,29.50
2019-05-02T17:45:43.732Z,29.50
2019-05-02T17:48:16.543Z,29.50
2019-05-02T17:51:03.167Z,29.50
2019-05-02T17:53:41.498Z,29.50
2019-05-02T17:56:06.866Z,29.40
2019-05-02T17:58:36.723Z,29.50
2019-05-02T18:01:10.874Z,29.40
2019-05-02T18:03:42.519Z,29.40
2019-05-02T18:06:16.892Z,29.40
2019-05-02T18:08:46.280Z,29.40
2019-05-02T18:11:17.020Z,29.50
2019-05-02T18:13:46.850Z,29.50
2019-05-02T18:16:16.828Z,29.40
2019-05-02T18:18:46.930Z,29.40
2019-05-02T18:21:17.268Z,29.40
2019-05-02T18:23:48.417Z,29.40
2019-05-02T18:26:18.331Z,29.50
2019-05-02T18:28:49.491Z,29.40
2019-05-02T18:31:21.419Z,29.40
2019-05-02T18:33:52.064Z,29.40
2019-05-02T18:36:23.688Z,29.40
2019-05-02T18:39:00.167Z,29.40
2019-05-02T18:41:25.334Z,29.40
2019-05-02T18:43:56.546Z,29.40
2019-05-02T18:46:26.574Z,29.40
2019-05-02T18:48:56.439Z,29.40
2019-05-02T18:51:26.646Z,29.40
2019-05-02T18:54:04.342Z,29.40
2019-05-02T18:56:35.664Z,29.40
2019-05-02T18:59:02.668Z,29.40
2019-05-02T19:01:32.646Z,29.40
2019-05-02T19:04:02.571Z,29.40
2019-05-02T19:06:33.381Z,29.40
2019-05-02T19:09:07.697Z,29.30
2019-05-02T19:11:37.537Z,29.30
2019-05-02T19:14:07.470Z,29.30
2019-05-02T19:16:37.667Z,29.40
2019-05-02T19:19:07.442Z,29.40
2019-05-02T19:21:39.478Z,29.30
2019-05-02T19:24:09.310Z,29.30
2019-05-02T19:26:41.674Z,29.30
2019-05-02T19:29:17.946Z,29.30
2019-05-02T19:31:52.533Z,29.30
2019-05-02T19:34:26.866Z,29.30
2019-05-02T19:36:57.825Z,29.30
2019-05-02T19:39:28.381Z,29.30
2019-05-02T19:41:58.271Z,29.30
2019-05-02T19:44:31.446Z,29.30
2019-05-02T19:47:02.553Z,29.30
2019-05-02T19:49:32.843Z,29.30
2019-05-02T19:52:03.358Z,29.30
2019-05-02T19:54:39.281Z,29.30
2019-05-02T19:57:04.988Z,29.30
2019-05-02T19:59:34.835Z,29.30
2019-05-02T20:02:06.200Z,29.30
2019-05-02T20:04:37.669Z,29.20
2019-05-02T20:07:08.566Z,29.20
2019-05-02T20:09:43.758Z,29.30
2019-05-02T20:12:15.011Z,29.30
2019-05-02T20:14:46.056Z,29.30
2019-05-02T20:17:20.305Z,29.30
2019-05-02T20:19:49.826Z,29.30
2019-05-02T20:22:19.747Z,29.30
2019-05-02T20:24:55.297Z,29.30
2019-05-02T20:27:24.167Z,29.30
2019-05-02T20:29:54.812Z,29.30
2019-05-02T20:32:25.531Z,29.30
2019-05-02T20:34:55.419Z,29.30
2019-05-02T20:37:25.430Z,29.30
2019-05-02T20:39:55.279Z,29.30
2019-05-02T20:42:25.089Z,29.30
2019-05-02T20:44:55.645Z,29.30
2019-05-02T20:47:26.786Z,29.30
2019-05-02T20:49:56.710Z,29.30
2019-05-02T20:52:26.481Z,29.30
2019-05-02T20:54:56.371Z,29.30
2019-05-02T20:57:26.211Z,29.30
2019-05-02T20:59:55.988Z,29.30
2019-05-02T21:02:26.163Z,29.40
2019-05-02T21:04:56.078Z,29.40
2019-05-02T21:07:33.272Z,29.30
2019-05-02T21:10:08.001Z,29.30
2019-05-02T21:12:37.875Z,29.30
2019-05-02T21:15:07.905Z,29.40
2019-05-02T21:17:37.755Z,29.30
2019-05-02T21:20:08.470Z,29.40
2019-05-02T21:22:38.317Z,29.40
2019-05-02T21:25:08.881Z,29.40
2019-05-02T21:27:38.804Z,29.40
2019-05-02T21:30:12.184Z,29.40
2019-05-02T21:32:43.983Z,29.40
2019-05-02T21:35:13.905Z,29.40
2019-05-02T21:37:43.682Z,29.40
2019-05-02T21:40:13.843Z,29.40
2019-05-02T21:42:43.659Z,29.40
2019-05-02T21:45:16.125Z,29.40
2019-05-02T21:47:47.693Z,29.40
2019-05-02T21:50:32.355Z,29.40
2019-05-02T21:53:18.678Z,29.40
2019-05-02T21:56:12.302Z,29.40
2019-05-02T21:59:02.943Z,29.40
2019-05-02T22:01:37.426Z,29.80
2019-05-02T22:04:07.273Z,29.40
2019-05-02T22:06:37.125Z,29.40
2019-05-02T22:09:08.357Z,29.50
2019-05-02T22:11:39.014Z,29.40
2019-05-02T22:14:09.218Z,29.40
2019-05-02T22:16:38.990Z,29.40
2019-05-02T22:19:08.943Z,29.40
2019-05-02T22:21:39.194Z,29.50
2019-05-02T22:24:11.750Z,29.50
2019-05-02T22:26:43.515Z,29.40
2019-05-02T22:29:14.177Z,29.50
2019-05-02T22:31:44.999Z,29.50
2019-05-02T22:34:14.838Z,29.50
2019-05-02T22:36:44.686Z,29.50
2019-05-02T22:39:32.378Z,29.50
2019-05-02T22:42:04.607Z,29.50
2019-05-02T22:44:33.935Z,29.50
2019-05-02T22:47:04.266Z,29.50
2019-05-02T22:49:34.891Z,29.50
2019-05-02T22:52:04.835Z,29.50
2019-05-02T22:54:34.609Z,29.50
2019-05-02T22:57:04.465Z,29.50
2019-05-02T22:59:34.287Z,29.50
2019-05-02T23:02:04.409Z,29.50
2019-05-02T23:04:34.574Z,29.50
2019-05-02T23:07:04.601Z,29.50
2019-05-02T23:09:34.441Z,29.50
2019-05-02T23:12:04.818Z,29.90
2019-05-02T23:14:34.673Z,29.50
2019-05-02T23:17:04.531Z,29.50
2019-05-02T23:19:34.454Z,29.50
2019-05-02T23:22:05.972Z,29.50
2019-05-02T23:24:45.122Z,29.50
2019-05-02T23:27:32.818Z,29.50
2019-05-02T23:30:04.034Z,29.50
2019-05-02T23:32:34.679Z,29.50
2019-05-02T23:35:07.295Z,29.50
2019-05-02T23:37:36.334Z,29.50
2019-05-02T23:40:06.931Z,29.50
2019-05-02T23:42:36.850Z,29.50
2019-05-02T23:45:07.083Z,29.60
2019-05-02T23:47:38.758Z,29.60
2019-05-02T23:50:09.155Z,29.60
2019-05-02T23:52:38.938Z,29.50
2019-05-02T23:55:09.055Z,29.60
2019-05-02T23:57:38.940Z,29.60
